createdAt,value
2022-08-08T00:01:52.521Z,15.20
2022-08-08T00:04:49.471Z,15.30
2022-08-08T00:07:43.587Z,15.30
2022-08-08T00:10:28.498Z,15.20
2022-08-08T00:13:10.030Z,15.10
2022-08-08T00:15:58.368Z,15.00
2022-08-08T00:19:08.589Z,14.90
2022-08-08T00:21:45.151Z,14.90
2022-08-08T00:24:33.570Z,14.70
2022-08-08T00:27:06.522Z,14.70
2022-08-08T00:29:51.826Z,14.70
2022-08-08T00:32:51.786Z,14.70
2022-08-08T00:35:56.959Z,14.70
2022-08-08T00:38:56.040Z,14.70
2022-08-08T00:42:07.870Z,14.70
2022-08-08T00:45:21.097Z,14.60
2022-08-08T00:48:33.907Z,14.60
2022-08-08T00:51:59.184Z,14.50
2022-08-08T00:54:45.793Z,14.50
2022-08-08T00:58:21.227Z,14.30
2022-08-08T01:01:29.411Z,14.20
2022-08-08T01:04:34.860Z,14.10
2022-08-08T01:07:55.676Z,13.90
2022-08-08T01:11:09.745Z,13.80
2022-08-08T01:14:54.855Z,13.70
2022-08-08T01:17:51.513Z,13.40
2022-08-08T01:20:53.511Z,13.30
2022-08-08T01:24:20.609Z,13.40
2022-08-08T01:27:44.875Z,13.60
2022-08-08T01:37:06.799Z,13.50
2022-08-08T01:39:56.876Z,13.50
2022-08-08T01:42:50.813Z,13.30
2022-08-08T01:46:03.280Z,13.20
2022-08-08T01:49:22.876Z,13.20
2022-08-08T01:52:57.263Z,13.20
2022-08-08T01:56:28.648Z,13.20
2022-08-08T01:58:47.222Z,13.30
2022-08-08T02:02:00.307Z,13.40
2022-08-08T02:04:46.066Z,13.40
2022-08-08T02:07:41.762Z,13.50
2022-08-08T02:10:59.168Z,13.60
2022-08-08T02:13:55.584Z,13.80
2022-08-08T02:17:03.758Z,13.70
2022-08-08T02:20:09.437Z,13.50
2022-08-08T02:23:18.390Z,13.30
2022-08-08T02:26:00.743Z,13.30
2022-08-08T02:29:18.591Z,13.10
2022-08-08T02:32:09.801Z,13.00
2022-08-08T02:36:05.216Z,13.00
2022-08-08T02:39:40.555Z,13.00
2022-08-08T02:43:00.709Z,12.90
2022-08-08T02:46:00.731Z,12.90
2022-08-08T02:49:27.355Z,12.90
2022-08-08T02:52:34.797Z,12.90
2022-08-08T02:56:03.274Z,12.90
2022-08-08T02:59:57.270Z,12.90
2022-08-08T03:02:52.493Z,12.80
2022-08-08T03:05:59.854Z,12.80
2022-08-08T03:09:28.743Z,12.60
2022-08-08T03:13:01.558Z,12.50
2022-08-08T03:15:56.773Z,12.60
2022-08-08T03:18:43.862Z,12.60
2022-08-08T03:21:14.518Z,12.30
2022-08-08T03:23:57.607Z,12.30
2022-08-08T03:26:42.011Z,12.40
2022-08-08T03:29:27.012Z,12.40
2022-08-08T03:32:29.080Z,12.20
2022-08-08T03:34:57.914Z,12.30
2022-08-08T03:38:53.156Z,12.40
2022-08-08T03:40:30.612Z,12.50
2022-08-08T03:43:16.725Z,12.70
2022-08-08T03:46:06.326Z,12.70
2022-08-08T03:49:56.324Z,12.50
2022-08-08T03:51:51.085Z,12.40
2022-08-08T03:54:41.699Z,12.50
2022-08-08T03:58:09.493Z,12.60
2022-08-08T04:00:11.230Z,12.60
2022-08-08T04:02:51.882Z,12.50
2022-08-08T04:05:22.788Z,12.40
2022-08-08T04:08:00.762Z,12.30
2022-08-08T04:10:32.884Z,12.30
2022-08-08T04:13:08.216Z,12.20
2022-08-08T04:16:03.443Z,12.20
2022-08-08T04:18:41.895Z,12.10
2022-08-08T04:21:13.071Z,12.00
2022-08-08T04:24:05.335Z,12.00
2022-08-08T04:26:35.471Z,12.00
2022-08-08T04:29:16.406Z,12.10
2022-08-08T04:31:59.438Z,12.20
2022-08-08T04:34:32.257Z,12.40
2022-08-08T04:37:11.931Z,12.50
2022-08-08T04:40:03.506Z,12.50
2022-08-08T04:42:31.565Z,12.50
2022-08-08T04:45:05.299Z,12.50
2022-08-08T04:47:36.517Z,12.50
2022-08-08T04:50:14.312Z,12.50
2022-08-08T04:53:00.902Z,12.50
2022-08-08T04:55:47.062Z,12.50
2022-08-08T04:58:17.497Z,12.60
2022-08-08T05:00:48.352Z,12.70
2022-08-08T05:03:18.942Z,12.80
2022-08-08T05:06:13.309Z,13.00
2022-08-08T05:08:43.171Z,13.40
2022-08-08T05:11:24.635Z,13.70
2022-08-08T07:15:32.546Z,27.90
2022-08-08T08:01:08.261Z,28.50
2022-08-08T09:12:07.614Z,31.60
